sensor_id;sensor_type;location;lat;lon;timestamp;P1;durP1;ratioP1;P2;durP2;ratioP2
62654;SDS011;48717;55.556;37.816;2023-08-07T00:00:13;11.90;;;8.30;;
62654;SDS011;48717;55.556;37.816;2023-08-07T00:02:40;18.75;;;13.30;;
62654;SDS011;48717;55.556;37.816;2023-08-07T00:05:07;14.45;;;6.97;;
62654;SDS011;48717;55.556;37.816;2023-08-07T00:07:35;10.45;;;7.38;;
62654;SDS011;48717;55.556;37.816;2023-08-07T00:10:02;12.93;;;6.80;;
62654;SDS011;48717;55.556;37.816;2023-08-07T00:12:30;9.65;;;6.63;;
62654;SDS011;48717;55.556;37.816;2023-08-07T00:14:57;12.68;;;6.90;;
62654;SDS011;48717;55.556;37.816;2023-08-07T00:17:24;11.88;;;6.88;;
62654;SDS011;48717;55.556;37.816;2023-08-07T00:19:52;10.15;;;6.97;;
62654;SDS011;48717;55.556;37.816;2023-08-07T00:22:19;12.55;;;7.10;;
62654;SDS011;48717;55.556;37.816;2023-08-07T00:24:47;8.32;;;6.47;;
62654;SDS011;48717;55.556;37.816;2023-08-07T00:27:14;10.98;;;6.88;;
62654;SDS011;48717;55.556;37.816;2023-08-07T00:29:42;11.77;;;6.93;;
62654;SDS011;48717;55.556;37.816;2023-08-07T00:32:09;16.25;;;10.38;;
62654;SDS011;48717;55.556;37.816;2023-08-07T00:34:39;13.02;;;7.50;;
62654;SDS011;48717;55.556;37.816;2023-08-07T00:37:07;10.38;;;7.30;;
62654;SDS011;48717;55.556;37.816;2023-08-07T00:39:35;7.93;;;6.30;;
62654;SDS011;48717;55.556;37.816;2023-08-07T00:42:05;7.80;;;6.47;;
62654;SDS011;48717;55.556;37.816;2023-08-07T00:44:34;7.78;;;6.97;;
62654;SDS011;48717;55.556;37.816;2023-08-07T00:47:01;13.95;;;7.65;;
62654;SDS011;48717;55.556;37.816;2023-08-07T00:49:29;14.20;;;7.60;;
62654;SDS011;48717;55.556;37.816;2023-08-07T00:51:56;25.77;;;8.52;;
62654;SDS011;48717;55.556;37.816;2023-08-07T00:54:24;26.17;;;9.30;;
62654;SDS011;48717;55.556;37.816;2023-08-07T00:56:54;26.25;;;8.82;;
62654;SDS011;48717;55.556;37.816;2023-08-07T00:59:22;26.83;;;8.25;;
62654;SDS011;48717;55.556;37.816;2023-08-07T01:01:50;26.20;;;11.02;;
62654;SDS011;48717;55.556;37.816;2023-08-07T01:04:17;23.05;;;9.07;;
62654;SDS011;48717;55.556;37.816;2023-08-07T01:06:46;23.27;;;9.38;;
62654;SDS011;48717;55.556;37.816;2023-08-07T01:09:13;21.52;;;8.07;;
62654;SDS011;48717;55.556;37.816;2023-08-07T01:11:44;21.65;;;8.35;;
62654;SDS011;48717;55.556;37.816;2023-08-07T01:17:34;23.65;;;9.68;;
62654;SDS011;48717;55.556;37.816;2023-08-07T01:20:02;39.25;;;17.63;;
62654;SDS011;48717;55.556;37.816;2023-08-07T01:22:30;26.05;;;9.20;;
62654;SDS011;48717;55.556;37.816;2023-08-07T01:24:58;17.38;;;8.30;;
62654;SDS011;48717;55.556;37.816;2023-08-07T01:30:02;25.23;;;7.90;;
62654;SDS011;48717;55.556;37.816;2023-08-07T01:35:21;25.17;;;8.38;;
62654;SDS011;48717;55.556;37.816;2023-08-07T01:37:53;19.88;;;8.07;;
62654;SDS011;48717;55.556;37.816;2023-08-07T01:40:25;18.55;;;7.53;;
62654;SDS011;48717;55.556;37.816;2023-08-07T01:42:54;16.77;;;7.72;;
62654;SDS011;48717;55.556;37.816;2023-08-07T01:45:22;18.58;;;7.90;;
62654;SDS011;48717;55.556;37.816;2023-08-07T01:47:53;19.10;;;7.75;;
62654;SDS011;48717;55.556;37.816;2023-08-07T01:50:22;17.98;;;8.07;;
62654;SDS011;48717;55.556;37.816;2023-08-07T01:52:50;13.25;;;8.27;;
62654;SDS011;48717;55.556;37.816;2023-08-07T01:55:18;16.98;;;8.30;;
62654;SDS011;48717;55.556;37.816;2023-08-07T01:57:50;20.48;;;8.73;;
62654;SDS011;48717;55.556;37.816;2023-08-07T02:00:18;24.65;;;8.52;;
62654;SDS011;48717;55.556;37.816;2023-08-07T02:02:46;19.15;;;8.43;;
62654;SDS011;48717;55.556;37.816;2023-08-07T02:05:14;26.20;;;11.00;;
62654;SDS011;48717;55.556;37.816;2023-08-07T02:07:42;23.98;;;8.88;;
62654;SDS011;48717;55.556;37.816;2023-08-07T02:10:09;21.23;;;8.68;;
62654;SDS011;48717;55.556;37.816;2023-08-07T02:12:37;27.50;;;9.52;;
62654;SDS011;48717;55.556;37.816;2023-08-07T02:15:05;17.92;;;8.30;;
62654;SDS011;48717;55.556;37.816;2023-08-07T02:17:34;21.33;;;9.60;;
62654;SDS011;48717;55.556;37.816;2023-08-07T02:22:32;18.88;;;8.55;;
62654;SDS011;48717;55.556;37.816;2023-08-07T02:25:00;19.40;;;8.38;;
62654;SDS011;48717;55.556;37.816;2023-08-07T02:27:30;24.95;;;10.75;;
62654;SDS011;48717;55.556;37.816;2023-08-07T02:29:57;27.95;;;11.88;;
62654;SDS011;48717;55.556;37.816;2023-08-07T02:32:24;19.50;;;8.82;;
62654;SDS011;48717;55.556;37.816;2023-08-07T02:34:53;19.15;;;8.50;;
62654;SDS011;48717;55.556;37.816;2023-08-07T02:37:23;23.88;;;8.45;;
62654;SDS011;48717;55.556;37.816;2023-08-07T02:39:50;20.27;;;8.65;;
62654;SDS011;48717;55.556;37.816;2023-08-07T02:42:18;17.92;;;8.82;;
62654;SDS011;48717;55.556;37.816;2023-08-07T02:44:46;20.77;;;8.48;;
62654;SDS011;48717;55.556;37.816;2023-08-07T02:47:14;19.92;;;8.23;;
62654;SDS011;48717;55.556;37.816;2023-08-07T02:49:41;16.42;;;7.78;;
62654;SDS011;48717;55.556;37.816;2023-08-07T02:52:08;21.10;;;8.65;;
62654;SDS011;48717;55.556;37.816;2023-08-07T02:54:35;18.02;;;8.30;;
62654;SDS011;48717;55.556;37.816;2023-08-07T02:57:02;15.40;;;7.93;;
62654;SDS011;48717;55.556;37.816;2023-08-07T02:59:29;16.13;;;7.70;;
62654;SDS011;48717;55.556;37.816;2023-08-07T03:01:57;17.23;;;7.53;;
62654;SDS011;48717;55.556;37.816;2023-08-07T03:04:24;16.23;;;7.80;;
62654;SDS011;48717;55.556;37.816;2023-08-07T03:06:51;12.50;;;7.05;;
62654;SDS011;48717;55.556;37.816;2023-08-07T03:09:18;13.20;;;7.90;;
62654;SDS011;48717;55.556;37.816;2023-08-07T03:11:45;18.98;;;7.60;;
62654;SDS011;48717;55.556;37.816;2023-08-07T03:14:12;11.93;;;7.60;;
62654;SDS011;48717;55.556;37.816;2023-08-07T03:16:39;12.75;;;7.40;;
62654;SDS011;48717;55.556;37.816;2023-08-07T03:19:07;17.27;;;7.18;;
62654;SDS011;48717;55.556;37.816;2023-08-07T03:21:35;11.55;;;6.65;;
62654;SDS011;48717;55.556;37.816;2023-08-07T03:24:05;18.08;;;7.00;;
62654;SDS011;48717;55.556;37.816;2023-08-07T03:26:32;12.38;;;6.55;;
62654;SDS011;48717;55.556;37.816;2023-08-07T03:28:59;10.88;;;6.75;;
62654;SDS011;48717;55.556;37.816;2023-08-07T03:31:27;13.10;;;6.63;;
62654;SDS011;48717;55.556;37.816;2023-08-07T03:33:54;12.57;;;7.13;;
62654;SDS011;48717;55.556;37.816;2023-08-07T03:36:21;12.27;;;6.47;;
62654;SDS011;48717;55.556;37.816;2023-08-07T03:38:50;9.00;;;6.32;;
62654;SDS011;48717;55.556;37.816;2023-08-07T03:41:17;9.65;;;6.10;;
62654;SDS011;48717;55.556;37.816;2023-08-07T03:43:45;9.98;;;5.90;;
62654;SDS011;48717;55.556;37.816;2023-08-07T03:46:13;8.50;;;5.40;;
62654;SDS011;48717;55.556;37.816;2023-08-07T03:48:41;7.53;;;5.72;;
62654;SDS011;48717;55.556;37.816;2023-08-07T03:51:09;7.00;;;5.20;;
62654;SDS011;48717;55.556;37.816;2023-08-07T03:53:47;9.95;;;5.50;;
62654;SDS011;48717;55.556;37.816;2023-08-07T03:56:14;7.00;;;5.25;;
62654;SDS011;48717;55.556;37.816;2023-08-07T03:58:42;10.15;;;5.38;;
62654;SDS011;48717;55.556;37.816;2023-08-07T04:01:09;8.02;;;5.15;;
62654;SDS011;48717;55.556;37.816;2023-08-07T04:03:39;7.32;;;5.13;;
62654;SDS011;48717;55.556;37.816;2023-08-07T04:06:06;5.40;;;4.72;;
62654;SDS011;48717;55.556;37.816;2023-08-07T04:08:33;6.65;;;4.97;;
62654;SDS011;48717;55.556;37.816;2023-08-07T04:11:01;7.35;;;5.30;;
62654;SDS011;48717;55.556;37.816;2023-08-07T04:13:34;6.32;;;4.43;;
62654;SDS011;48717;55.556;37.816;2023-08-07T04:16:02;6.75;;;4.93;;
62654;SDS011;48717;55.556;37.816;2023-08-07T04:18:32;5.57;;;4.72;;
62654;SDS011;48717;55.556;37.816;2023-08-07T04:21:02;7.72;;;4.60;;
62654;SDS011;48717;55.556;37.816;2023-08-07T04:23:35;15.85;;;10.10;;
62654;SDS011;48717;55.556;37.816;2023-08-07T04:26:15;8.18;;;5.22;;
62654;SDS011;48717;55.556;37.816;2023-08-07T04:28:50;5.75;;;4.60;;
62654;SDS011;48717;55.556;37.816;2023-08-07T04:31:17;4.82;;;4.10;;
62654;SDS011;48717;55.556;37.816;2023-08-07T04:33:45;4.50;;;3.92;;
62654;SDS011;48717;55.556;37.816;2023-08-07T04:39:14;7.82;;;4.13;;
62654;SDS011;48717;55.556;37.816;2023-08-07T04:41:42;5.85;;;4.43;;
62654;SDS011;48717;55.556;37.816;2023-08-07T04:44:09;5.75;;;3.97;;
62654;SDS011;48717;55.556;37.816;2023-08-07T04:46:36;5.70;;;4.32;;
62654;SDS011;48717;55.556;37.816;2023-08-07T04:49:03;6.07;;;3.88;;
62654;SDS011;48717;55.556;37.816;2023-08-07T04:51:31;5.10;;;3.72;;
62654;SDS011;48717;55.556;37.816;2023-08-07T04:53:58;6.53;;;4.10;;
62654;SDS011;48717;55.556;37.816;2023-08-07T04:56:25;5.53;;;3.97;;
62654;SDS011;48717;55.556;37.816;2023-08-07T04:58:53;7.05;;;4.22;;
62654;SDS011;48717;55.556;37.816;2023-08-07T05:01:20;4.00;;;3.60;;
62654;SDS011;48717;55.556;37.816;2023-08-07T05:03:47;6.82;;;3.95;;
62654;SDS011;48717;55.556;37.816;2023-08-07T05:06:15;5.50;;;3.75;;
62654;SDS011;48717;55.556;37.816;2023-08-07T05:08:42;4.10;;;3.47;;
62654;SDS011;48717;55.556;37.816;2023-08-07T05:11:10;4.95;;;3.88;;
62654;SDS011;48717;55.556;37.816;2023-08-07T05:13:37;12.65;;;4.03;;
62654;SDS011;48717;55.556;37.816;2023-08-07T05:16:05;4.65;;;3.50;;
62654;SDS011;48717;55.556;37.816;2023-08-07T05:18:32;5.20;;;3.50;;
62654;SDS011;48717;55.556;37.816;2023-08-07T05:20:59;5.93;;;3.95;;
62654;SDS011;48717;55.556;37.816;2023-08-07T05:23:27;6.00;;;3.90;;
62654;SDS011;48717;55.556;37.816;2023-08-07T05:25:54;7.70;;;3.60;;
62654;SDS011;48717;55.556;37.816;2023-08-07T05:28:23;5.85;;;3.22;;
62654;SDS011;48717;55.556;37.816;2023-08-07T05:30:50;6.13;;;3.33;;
62654;SDS011;48717;55.556;37.816;2023-08-07T05:33:17;6.47;;;3.67;;
62654;SDS011;48717;55.556;37.816;2023-08-07T05:35:46;6.07;;;3.50;;
62654;SDS011;48717;55.556;37.816;2023-08-07T05:40:43;8.73;;;3.47;;
62654;SDS011;48717;55.556;37.816;2023-08-07T05:43:10;4.13;;;3.17;;
62654;SDS011;48717;55.556;37.816;2023-08-07T05:48:42;5.43;;;3.20;;
62654;SDS011;48717;55.556;37.816;2023-08-07T05:51:09;3.38;;;3.08;;
62654;SDS011;48717;55.556;37.816;2023-08-07T05:53:43;5.95;;;3.17;;
62654;SDS011;48717;55.556;37.816;2023-08-07T05:56:12;6.10;;;3.55;;
62654;SDS011;48717;55.556;37.816;2023-08-07T05:58:44;5.10;;;3.30;;
62654;SDS011;48717;55.556;37.816;2023-08-07T06:01:12;8.90;;;3.10;;
62654;SDS011;48717;55.556;37.816;2023-08-07T06:03:41;7.93;;;5.25;;
62654;SDS011;48717;55.556;37.816;2023-08-07T06:09:44;5.55;;;3.10;;
62654;SDS011;48717;55.556;37.816;2023-08-07T06:12:23;6.32;;;3.15;;
62654;SDS011;48717;55.556;37.816;2023-08-07T06:18:12;7.07;;;3.35;;
62654;SDS011;48717;55.556;37.816;2023-08-07T06:20:43;5.88;;;2.95;;
62654;SDS011;48717;55.556;37.816;2023-08-07T06:23:43;5.28;;;2.97;;
62654;SDS011;48717;55.556;37.816;2023-08-07T06:29:51;6.00;;;3.05;;
62654;SDS011;48717;55.556;37.816;2023-08-07T06:32:24;5.35;;;2.80;;
62654;SDS011;48717;55.556;37.816;2023-08-07T06:36:18;5.25;;;2.60;;
62654;SDS011;48717;55.556;37.816;2023-08-07T06:38:58;10.75;;;2.63;;
62654;SDS011;48717;55.556;37.816;2023-08-07T06:45:54;3.65;;;2.40;;
62654;SDS011;48717;55.556;37.816;2023-08-07T07:14:07;8.75;;;2.38;;
62654;SDS011;48717;55.556;37.816;2023-08-07T07:16:34;6.05;;;2.30;;
62654;SDS011;48717;55.556;37.816;2023-08-07T07:19:02;5.20;;;2.28;;
62654;SDS011;48717;55.556;37.816;2023-08-07T07:21:30;6.63;;;2.25;;
62654;SDS011;48717;55.556;37.816;2023-08-07T07:23:57;6.45;;;2.40;;
62654;SDS011;48717;55.556;37.816;2023-08-07T07:26:24;7.80;;;2.55;;
62654;SDS011;48717;55.556;37.816;2023-08-07T07:28:51;5.55;;;2.22;;
62654;SDS011;48717;55.556;37.816;2023-08-07T07:31:18;4.43;;;2.38;;
62654;SDS011;48717;55.556;37.816;2023-08-07T07:33:46;9.18;;;2.53;;
62654;SDS011;48717;55.556;37.816;2023-08-07T07:36:17;7.22;;;2.20;;
62654;SDS011;48717;55.556;37.816;2023-08-07T07:38:45;2.45;;;2.20;;
62654;SDS011;48717;55.556;37.816;2023-08-07T07:41:14;10.13;;;2.80;;
62654;SDS011;48717;55.556;37.816;2023-08-07T07:43:41;4.30;;;2.30;;
62654;SDS011;48717;55.556;37.816;2023-08-07T07:46:09;3.00;;;2.20;;
62654;SDS011;48717;55.556;37.816;2023-08-07T07:48:37;3.63;;;2.20;;
62654;SDS011;48717;55.556;37.816;2023-08-07T07:51:04;3.97;;;2.22;;
62654;SDS011;48717;55.556;37.816;2023-08-07T07:53:31;3.33;;;2.00;;
62654;SDS011;48717;55.556;37.816;2023-08-07T07:55:59;9.45;;;2.35;;
62654;SDS011;48717;55.556;37.816;2023-08-07T07:58:26;8.90;;;2.00;;
62654;SDS011;48717;55.556;37.816;2023-08-07T08:00:54;2.25;;;2.00;;
62654;SDS011;48717;55.556;37.816;2023-08-07T08:03:21;2.38;;;1.95;;
62654;SDS011;48717;55.556;37.816;2023-08-07T08:05:51;4.53;;;2.20;;
62654;SDS011;48717;55.556;37.816;2023-08-07T08:08:19;4.32;;;2.20;;
62654;SDS011;48717;55.556;37.816;2023-08-07T08:10:46;5.10;;;2.45;;
62654;SDS011;48717;55.556;37.816;2023-08-07T08:13:15;7.57;;;2.70;;
62654;SDS011;48717;55.556;37.816;2023-08-07T08:15:43;2.25;;;2.05;;
62654;SDS011;48717;55.556;37.816;2023-08-07T08:18:11;3.88;;;2.25;;
62654;SDS011;48717;55.556;37.816;2023-08-07T08:20:39;7.68;;;2.25;;
62654;SDS011;48717;55.556;37.816;2023-08-07T08:23:06;3.17;;;1.90;;
62654;SDS011;48717;55.556;37.816;2023-08-07T08:25:33;4.35;;;2.00;;
62654;SDS011;48717;55.556;37.816;2023-08-07T08:28:00;9.25;;;2.15;;
62654;SDS011;48717;55.556;37.816;2023-08-07T08:30:27;3.95;;;2.28;;
62654;SDS011;48717;55.556;37.816;2023-08-07T08:32:55;8.95;;;1.95;;
62654;SDS011;48717;55.556;37.816;2023-08-07T08:35:22;7.32;;;2.28;;
62654;SDS011;48717;55.556;37.816;2023-08-07T08:37:49;7.28;;;2.25;;
62654;SDS011;48717;55.556;37.816;2023-08-07T08:40:16;4.75;;;2.10;;
62654;SDS011;48717;55.556;37.816;2023-08-07T08:42:45;6.63;;;2.08;;
62654;SDS011;48717;55.556;37.816;2023-08-07T08:45:14;3.58;;;1.90;;
62654;SDS011;48717;55.556;37.816;2023-08-07T08:47:41;5.95;;;2.15;;
62654;SDS011;48717;55.556;37.816;2023-08-07T08:50:13;2.17;;;1.92;;
62654;SDS011;48717;55.556;37.816;2023-08-07T08:52:42;2.57;;;1.90;;
62654;SDS011;48717;55.556;37.816;2023-08-07T08:55:13;4.32;;;2.08;;
62654;SDS011;48717;55.556;37.816;2023-08-07T08:57:40;3.55;;;2.10;;
62654;SDS011;48717;55.556;37.816;2023-08-07T09:00:09;7.35;;;2.35;;
62654;SDS011;48717;55.556;37.816;2023-08-07T09:02:47;3.33;;;2.00;;
62654;SDS011;48717;55.556;37.816;2023-08-07T09:05:16;4.15;;;2.25;;
62654;SDS011;48717;55.556;37.816;2023-08-07T09:07:46;6.30;;;2.60;;
62654;SDS011;48717;55.556;37.816;2023-08-07T09:10:14;3.45;;;2.10;;
62654;SDS011;48717;55.556;37.816;2023-08-07T09:13:01;2.90;;;1.98;;
62654;SDS011;48717;55.556;37.816;2023-08-07T09:15:32;4.63;;;2.20;;
62654;SDS011;48717;55.556;37.816;2023-08-07T09:18:00;6.05;;;2.00;;
62654;SDS011;48717;55.556;37.816;2023-08-07T09:20:31;5.57;;;2.15;;
62654;SDS011;48717;55.556;37.816;2023-08-07T09:22:58;5.63;;;2.30;;
62654;SDS011;48717;55.556;37.816;2023-08-07T09:25:29;5.93;;;2.20;;
62654;SDS011;48717;55.556;37.816;2023-08-07T09:27:57;5.97;;;2.30;;
62654;SDS011;48717;55.556;37.816;2023-08-07T09:30:28;6.15;;;2.25;;
62654;SDS011;48717;55.556;37.816;2023-08-07T09:32:59;8.63;;;2.70;;
62654;SDS011;48717;55.556;37.816;2023-08-07T09:35:28;5.60;;;2.00;;
62654;SDS011;48717;55.556;37.816;2023-08-07T09:37:57;9.73;;;2.25;;
62654;SDS011;48717;55.556;37.816;2023-08-07T09:40:25;6.10;;;2.40;;
62654;SDS011;48717;55.556;37.816;2023-08-07T09:42:53;6.00;;;2.28;;
62654;SDS011;48717;55.556;37.816;2023-08-07T09:50:26;4.88;;;2.30;;
62654;SDS011;48717;55.556;37.816;2023-08-07T09:52:54;3.90;;;2.42;;
62654;SDS011;48717;55.556;37.816;2023-08-07T09:55:22;4.68;;;2.30;;
62654;SDS011;48717;55.556;37.816;2023-08-07T09:57:50;3.90;;;2.17;;
62654;SDS011;48717;55.556;37.816;2023-08-07T10:00:17;7.22;;;2.40;;
62654;SDS011;48717;55.556;37.816;2023-08-07T10:02:50;2.80;;;2.20;;
62654;SDS011;48717;55.556;37.816;2023-08-07T10:05:18;3.88;;;2.30;;
62654;SDS011;48717;55.556;37.816;2023-08-07T10:07:45;4.88;;;2.40;;
62654;SDS011;48717;55.556;37.816;2023-08-07T10:10:14;4.05;;;2.30;;
62654;SDS011;48717;55.556;37.816;2023-08-07T10:12:41;3.95;;;2.40;;
62654;SDS011;48717;55.556;37.816;2023-08-07T10:15:08;2.58;;;2.35;;
62654;SDS011;48717;55.556;37.816;2023-08-07T10:17:36;9.60;;;2.63;;
62654;SDS011;48717;55.556;37.816;2023-08-07T10:20:03;3.85;;;2.15;;
62654;SDS011;48717;55.556;37.816;2023-08-07T10:22:31;3.53;;;2.10;;
62654;SDS011;48717;55.556;37.816;2023-08-07T10:25:00;5.00;;;2.13;;
62654;SDS011;48717;55.556;37.816;2023-08-07T10:27:33;4.53;;;2.80;;
62654;SDS011;48717;55.556;37.816;2023-08-07T10:30:05;4.82;;;2.72;;
62654;SDS011;48717;55.556;37.816;2023-08-07T10:32:35;3.10;;;2.50;;
62654;SDS011;48717;55.556;37.816;2023-08-07T10:35:03;6.00;;;2.50;;
62654;SDS011;48717;55.556;37.816;2023-08-07T10:37:41;8.50;;;2.72;;
62654;SDS011;48717;55.556;37.816;2023-08-07T10:40:11;8.05;;;3.42;;
62654;SDS011;48717;55.556;37.816;2023-08-07T10:45:27;5.20;;;2.70;;
62654;SDS011;48717;55.556;37.816;2023-08-07T10:50:29;9.07;;;2.47;;
62654;SDS011;48717;55.556;37.816;2023-08-07T10:55:47;4.65;;;2.40;;
62654;SDS011;48717;55.556;37.816;2023-08-07T10:58:22;3.65;;;2.70;;
62654;SDS011;48717;55.556;37.816;2023-08-07T11:00:51;4.97;;;3.00;;
62654;SDS011;48717;55.556;37.816;2023-08-07T11:03:28;5.47;;;2.75;;
62654;SDS011;48717;55.556;37.816;2023-08-07T11:05:57;3.58;;;2.40;;
62654;SDS011;48717;55.556;37.816;2023-08-07T11:08:25;5.78;;;2.60;;
62654;SDS011;48717;55.556;37.816;2023-08-07T11:10:56;6.82;;;3.05;;
62654;SDS011;48717;55.556;37.816;2023-08-07T11:13:30;4.05;;;2.67;;
62654;SDS011;48717;55.556;37.816;2023-08-07T11:15:57;3.88;;;2.70;;
62654;SDS011;48717;55.556;37.816;2023-08-07T11:18:26;8.27;;;2.97;;
62654;SDS011;48717;55.556;37.816;2023-08-07T11:20:54;4.50;;;2.80;;
62654;SDS011;48717;55.556;37.816;2023-08-07T11:25:53;10.25;;;3.15;;
62654;SDS011;48717;55.556;37.816;2023-08-07T11:28:21;2.75;;;2.55;;
62654;SDS011;48717;55.556;37.816;2023-08-07T11:30:51;8.38;;;3.20;;
62654;SDS011;48717;55.556;37.816;2023-08-07T11:33:19;8.52;;;3.00;;
62654;SDS011;48717;55.556;37.816;2023-08-07T11:35:47;3.88;;;3.10;;
62654;SDS011;48717;55.556;37.816;2023-08-07T11:38:27;4.32;;;2.63;;
62654;SDS011;48717;55.556;37.816;2023-08-07T11:41:02;3.55;;;2.60;;
62654;SDS011;48717;55.556;37.816;2023-08-07T11:43:30;4.40;;;2.90;;
62654;SDS011;48717;55.556;37.816;2023-08-07T11:45:59;4.13;;;2.85;;
62654;SDS011;48717;55.556;37.816;2023-08-07T11:48:29;4.70;;;2.90;;
62654;SDS011;48717;55.556;37.816;2023-08-07T11:50:57;5.00;;;2.45;;
62654;SDS011;48717;55.556;37.816;2023-08-07T11:53:25;3.00;;;2.65;;
62654;SDS011;48717;55.556;37.816;2023-08-07T11:58:41;4.32;;;3.00;;
62654;SDS011;48717;55.556;37.816;2023-08-07T12:03:57;7.45;;;3.00;;
62654;SDS011;48717;55.556;37.816;2023-08-07T12:06:36;3.80;;;2.70;;
62654;SDS011;48717;55.556;37.816;2023-08-07T12:09:06;3.88;;;2.80;;
62654;SDS011;48717;55.556;37.816;2023-08-07T12:11:39;7.03;;;2.78;;
62654;SDS011;48717;55.556;37.816;2023-08-07T12:14:06;3.83;;;2.70;;
62654;SDS011;48717;55.556;37.816;2023-08-07T12:16:36;3.00;;;2.70;;
62654;SDS011;48717;55.556;37.816;2023-08-07T12:19:03;4.93;;;2.83;;
62654;SDS011;48717;55.556;37.816;2023-08-07T12:21:31;5.03;;;2.92;;
62654;SDS011;48717;55.556;37.816;2023-08-07T12:26:27;3.35;;;2.80;;
62654;SDS011;48717;55.556;37.816;2023-08-07T12:28:54;3.75;;;2.88;;
62654;SDS011;48717;55.556;37.816;2023-08-07T12:31:21;5.82;;;3.00;;
62654;SDS011;48717;55.556;37.816;2023-08-07T12:33:48;3.78;;;3.22;;
62654;SDS011;48717;55.556;37.816;2023-08-07T12:36:16;6.03;;;2.90;;
62654;SDS011;48717;55.556;37.816;2023-08-07T12:38:46;5.60;;;2.85;;
62654;SDS011;48717;55.556;37.816;2023-08-07T12:41:14;5.68;;;3.17;;
62654;SDS011;48717;55.556;37.816;2023-08-07T12:43:44;6.32;;;2.90;;
62654;SDS011;48717;55.556;37.816;2023-08-07T12:46:11;7.35;;;2.88;;
62654;SDS011;48717;55.556;37.816;2023-08-07T12:48:41;4.82;;;2.88;;
62654;SDS011;48717;55.556;37.816;2023-08-07T12:51:08;5.70;;;2.97;;
62654;SDS011;48717;55.556;37.816;2023-08-07T12:53:35;6.28;;;2.65;;
62654;SDS011;48717;55.556;37.816;2023-08-07T12:56:02;15.38;;;3.90;;
62654;SDS011;48717;55.556;37.816;2023-08-07T12:58:31;6.97;;;2.80;;
62654;SDS011;48717;55.556;37.816;2023-08-07T13:00:58;8.88;;;3.00;;
62654;SDS011;48717;55.556;37.816;2023-08-07T13:03:25;4.78;;;2.70;;
62654;SDS011;48717;55.556;37.816;2023-08-07T13:05:53;5.03;;;2.90;;
62654;SDS011;48717;55.556;37.816;2023-08-07T13:08:20;7.25;;;2.70;;
62654;SDS011;48717;55.556;37.816;2023-08-07T13:10:47;7.55;;;3.55;;
62654;SDS011;48717;55.556;37.816;2023-08-07T13:13:16;4.90;;;3.10;;
62654;SDS011;48717;55.556;37.816;2023-08-07T13:15:43;4.15;;;2.80;;
62654;SDS011;48717;55.556;37.816;2023-08-07T13:18:10;3.42;;;3.13;;
62654;SDS011;48717;55.556;37.816;2023-08-07T13:20:37;4.00;;;3.25;;
62654;SDS011;48717;55.556;37.816;2023-08-07T13:23:04;6.32;;;2.90;;
62654;SDS011;48717;55.556;37.816;2023-08-07T13:25:33;9.82;;;2.92;;
62654;SDS011;48717;55.556;37.816;2023-08-07T13:28:00;5.43;;;3.03;;
62654;SDS011;48717;55.556;37.816;2023-08-07T13:30:30;5.82;;;3.00;;
62654;SDS011;48717;55.556;37.816;2023-08-07T13:33:02;6.63;;;2.70;;
62654;SDS011;48717;55.556;37.816;2023-08-07T13:35:30;7.10;;;3.03;;
62654;SDS011;48717;55.556;37.816;2023-08-07T13:37:59;3.78;;;2.75;;
62654;SDS011;48717;55.556;37.816;2023-08-07T13:40:32;6.43;;;2.63;;
62654;SDS011;48717;55.556;37.816;2023-08-07T13:42:59;6.15;;;2.80;;
62654;SDS011;48717;55.556;37.816;2023-08-07T13:45:29;8.20;;;3.25;;
62654;SDS011;48717;55.556;37.816;2023-08-07T13:47:56;5.95;;;2.95;;
62654;SDS011;48717;55.556;37.816;2023-08-07T13:50:23;8.18;;;3.33;;
62654;SDS011;48717;55.556;37.816;2023-08-07T13:52:51;4.03;;;3.20;;
62654;SDS011;48717;55.556;37.816;2023-08-07T13:55:34;5.93;;;3.17;;
62654;SDS011;48717;55.556;37.816;2023-08-07T13:58:01;4.28;;;3.30;;
62654;SDS011;48717;55.556;37.816;2023-08-07T14:00:28;5.60;;;3.20;;
62654;SDS011;48717;55.556;37.816;2023-08-07T14:02:55;8.95;;;3.25;;
62654;SDS011;48717;55.556;37.816;2023-08-07T14:05:22;4.88;;;2.92;;
62654;SDS011;48717;55.556;37.816;2023-08-07T14:07:49;10.90;;;9.18;;
62654;SDS011;48717;55.556;37.816;2023-08-07T14:10:16;4.95;;;2.90;;
62654;SDS011;48717;55.556;37.816;2023-08-07T14:12:44;6.32;;;2.90;;
62654;SDS011;48717;55.556;37.816;2023-08-07T14:15:11;4.40;;;2.90;;
62654;SDS011;48717;55.556;37.816;2023-08-07T14:17:38;4.28;;;2.83;;
62654;SDS011;48717;55.556;37.816;2023-08-07T14:20:05;3.38;;;3.05;;
62654;SDS011;48717;55.556;37.816;2023-08-07T14:22:33;6.95;;;2.90;;
62654;SDS011;48717;55.556;37.816;2023-08-07T14:25:03;3.92;;;3.10;;
62654;SDS011;48717;55.556;37.816;2023-08-07T14:27:31;4.90;;;3.03;;
62654;SDS011;48717;55.556;37.816;2023-08-07T14:30:00;4.47;;;2.97;;
62654;SDS011;48717;55.556;37.816;2023-08-07T14:32:30;3.50;;;3.20;;
62654;SDS011;48717;55.556;37.816;2023-08-07T14:34:57;4.05;;;2.85;;
62654;SDS011;48717;55.556;37.816;2023-08-07T14:37:25;7.15;;;3.40;;
62654;SDS011;48717;55.556;37.816;2023-08-07T14:39:52;8.55;;;6.00;;
62654;SDS011;48717;55.556;37.816;2023-08-07T14:42:19;9.65;;;5.82;;
62654;SDS011;48717;55.556;37.816;2023-08-07T14:44:46;3.58;;;3.10;;
62654;SDS011;48717;55.556;37.816;2023-08-07T14:47:13;6.93;;;3.13;;
62654;SDS011;48717;55.556;37.816;2023-08-07T14:49:40;7.53;;;3.22;;
62654;SDS011;48717;55.556;37.816;2023-08-07T14:52:08;5.97;;;3.42;;
62654;SDS011;48717;55.556;37.816;2023-08-07T14:54:35;3.60;;;2.90;;
62654;SDS011;48717;55.556;37.816;2023-08-07T14:57:02;6.15;;;3.35;;
62654;SDS011;48717;55.556;37.816;2023-08-07T14:59:29;5.72;;;3.10;;
62654;SDS011;48717;55.556;37.816;2023-08-07T15:01:56;3.60;;;3.15;;
62654;SDS011;48717;55.556;37.816;2023-08-07T15:04:24;3.80;;;3.22;;
62654;SDS011;48717;55.556;37.816;2023-08-07T15:06:51;4.53;;;3.10;;
62654;SDS011;48717;55.556;37.816;2023-08-07T15:09:18;3.78;;;3.38;;
62654;SDS011;48717;55.556;37.816;2023-08-07T15:11:46;9.23;;;3.88;;
62654;SDS011;48717;55.556;37.816;2023-08-07T15:14:13;4.78;;;3.40;;
62654;SDS011;48717;55.556;37.816;2023-08-07T15:16:41;4.28;;;3.10;;
62654;SDS011;48717;55.556;37.816;2023-08-07T15:19:08;3.95;;;2.90;;
62654;SDS011;48717;55.556;37.816;2023-08-07T15:21:35;3.83;;;3.00;;
62654;SDS011;48717;55.556;37.816;2023-08-07T15:24:03;8.48;;;3.17;;
62654;SDS011;48717;55.556;37.816;2023-08-07T15:26:30;4.50;;;3.28;;
62654;SDS011;48717;55.556;37.816;2023-08-07T15:28:57;6.78;;;3.10;;
62654;SDS011;48717;55.556;37.816;2023-08-07T15:31:25;11.82;;;4.75;;
62654;SDS011;48717;55.556;37.816;2023-08-07T15:33:52;15.20;;;8.65;;
62654;SDS011;48717;55.556;37.816;2023-08-07T15:36:19;5.32;;;3.05;;
62654;SDS011;48717;55.556;37.816;2023-08-07T15:38:47;8.65;;;3.30;;
62654;SDS011;48717;55.556;37.816;2023-08-07T15:50:28;7.38;;;3.05;;
62654;SDS011;48717;55.556;37.816;2023-08-07T15:58:51;7.75;;;4.25;;
62654;SDS011;48717;55.556;37.816;2023-08-07T16:01:18;10.30;;;3.90;;
62654;SDS011;48717;55.556;37.816;2023-08-07T16:03:45;9.07;;;5.00;;
62654;SDS011;48717;55.556;37.816;2023-08-07T16:06:12;7.63;;;5.20;;
62654;SDS011;48717;55.556;37.816;2023-08-07T16:08:40;9.00;;;5.45;;
62654;SDS011;48717;55.556;37.816;2023-08-07T16:11:07;10.43;;;4.80;;
62654;SDS011;48717;55.556;37.816;2023-08-07T16:13:34;7.88;;;4.80;;
62654;SDS011;48717;55.556;37.816;2023-08-07T16:16:01;6.30;;;4.10;;
62654;SDS011;48717;55.556;37.816;2023-08-07T16:18:28;10.18;;;4.03;;